Crown Princess — ZCDM6 — position and weather

sailwx.info

Track history (hours):
 
Tides and Currents Weather Stations Pressure Air Temp Water Temp Dewpoint Dewpoint Depression Visibility Wind Speed Wind Dir Waves Ship Positions

Crown Princess

Last reported at 2016-Jul-31 08:33 UTC. Time now 2016-Jul-31 09:31 UTC.
Position N 48°58' W 126°13'.

Type: Ship. MMSI: 310500000.

Date/timePositionNaut miles runAvg speedWind from/ knotsBaromVisibWave heightAir tempDewpointWater temp
2016-Jul-31 08:33N 48°58' W 126°13'2221.8
2016-Jul-31 07:33N 48°45' W 125°46'2222.3
2016-Jul-31 06:33N 48°34' W 125°17'5222.3
2016-Jul-31 04:13N 48°19' W 124°02'1522.1
2016-Jul-31 03:33N 48°16' W 123°40'1615.8
2016-Jul-31 02:33N 48°09' W 123°19'1918.6
2016-Jul-31 01:33N 48°12' W 122°51'2121.1
2016-Jul-31 00:33N 47°56' W 122°31'19 9.5
2016-Jul-30 22:32N 47°38' W 122°23'0 0.0
2016-Jul-30 21:32N 47°38' W 122°23'0 0.0
2016-Jul-30 20:31N 47°38' W 122°23'0 0.0
2016-Jul-30 19:33N 47°38' W 122°23'0 0.0
2016-Jul-30 18:33N 47°38' W 122°23'0 0.0
2016-Jul-30 17:33N 47°38' W 122°23'0 0.0
2016-Jul-30 16:33N 47°38' W 122°23'0 0.0
2016-Jul-30 15:33N 47°38' W 122°23'0 0.0
2016-Jul-30 14:31N 47°38' W 122°23'0 0.0
2016-Jul-30 13:32N 47°38' W 122°23'2 2.5
2016-Jul-30 12:33N 47°38' W 122°26'1212.4
2016-Jul-30 11:33N 47°50' W 122°28'1313.3
2016-Jul-30 10:33N 48°02' W 122°38'1414.2
2016-Jul-30 09:33N 48°11' W 122°54'1716.2
2016-Jul-30 08:30N 48°10' W 123°20'1011.0
2016-Jul-30 07:33N 48°20' W 123°27'6 1.0
2016-Jul-30 02:04N 48°25' W 123°24'0 0.0
2016-Jul-30 01:22N 48°25' W 123°24'6 7.5
2016-Jul-30 00:33N 48°19' W 123°25'1616.3
2016-Jul-29 23:33N 48°14' W 123°48'1818.2
2016-Jul-29 22:33N 48°19' W 124°14'1918.6
2016-Jul-29 21:33N 48°27' W 124°39'1918.6
2016-Jul-29 20:33N 48°28' W 125°07'2020.4
2016-Jul-29 19:33N 48°38' W 125°35'2222.0
2016-Jul-29 18:33N 48°50' W 126°03'2121.1
2016-Jul-29 17:34N 49°02' W 126°28'2221.6
2016-Jul-29 16:34N 49°16' W 126°55'2322.6
2016-Jul-29 15:33N 49°30' W 127°21'60615.1
2016-Jul-27 23:33N 58°18' W 135°46'1211.8
2016-Jul-27 22:33N 58°27' W 136°00'1313.4
2016-Jul-27 21:33N 58°40' W 136°05'4 0.6
2016-Jul-27 14:33N 58°36' W 136°04'1312.7
2016-Jul-27 13:33N 58°24' W 135°58'1010.2
2016-Jul-27 12:33N 58°18' W 135°42'1212.3
2016-Jul-27 11:33N 58°13' W 135°20'  
2016-Jul-24 10:33N 49°18' W 126°56'2222.3
2016-Jul-24 09:33N 49°05' W 126°29'2121.4
2016-Jul-24 08:33N 48°52' W 126°03'2121.0
2016-Jul-24 07:34N 48°41' W 125°35'2322.9
2016-Jul-24 06:34N 48°31' W 125°04'2423.6
2016-Jul-24 05:34N 48°27' W 124°29'2322.7
2016-Jul-24 04:33N 48°18' W 123°57'2121.4
2016-Jul-24 03:34N 48°13' W 123°26'1413.8
2016-Jul-24 02:33N 48°13' W 123°06'1817.8
2016-Jul-24 01:33N 48°07' W 122°40'1817.9
2016-Jul-24 00:33N 47°52' W 122°28'1514.7
2016-Jul-23 23:33N 47°37' W 122°24'1 0.7
2016-Jul-23 22:32N 47°38' W 122°23'0 0.0
2016-Jul-23 21:32N 47°38' W 122°23'0 0.0
2016-Jul-23 20:32N 47°38' W 122°23'0 0.0
2016-Jul-23 19:31N 47°38' W 122°23'0 0.0
2016-Jul-23 18:34N 47°38' W 122°23'0 0.0
2016-Jul-23 17:33N 47°38' W 122°23'0 0.0
2016-Jul-23 16:33N 47°38' W 122°23'0 0.0
2016-Jul-23 15:33N 47°38' W 122°23'0 0.0
2016-Jul-23 14:32N 47°38' W 122°23'0 0.0
2016-Jul-23 13:33N 47°38' W 122°23'4 3.6
2016-Jul-23 12:34N 47°39' W 122°28'1312.8
2016-Jul-23 11:34N 47°52' W 122°29'1413.7
2016-Jul-23 10:33N 48°03' W 122°39'1615.8
2016-Jul-23 09:33N 48°12' W 122°60'1515.3
2016-Jul-23 08:33N 48°10' W 123°22'1312.6
2016-Jul-23 07:33N 48°22' W 123°25'3 0.5
2016-Jul-23 01:33N 48°25' W 123°24'5 4.9
2016-Jul-23 00:33N 48°20' W 123°24'1817.6
2016-Jul-22 23:33N 48°14' W 123°49'2222.3
2016-Jul-22 22:33N 48°21' W 124°20'2020.2
2016-Jul-22 21:33N 48°29' W 124°49'1919.1
2016-Jul-22 20:33N 48°31' W 125°17'2120.6
2016-Jul-22 19:33N 48°41' W 125°45'2222.3
2016-Jul-22 18:33N 48°54' W 126°12'2322.5
2016-Jul-22 17:33N 49°08' W 126°39'2323.2
2016-Jul-22 16:33N 49°22' W 127°07'18922.1
2016-Jul-22 08:00N 51°54' W 130°06'   240 / 161019.310.8 1.515.010.315.0
Track history (hours):
 
Tides and Currents Weather Stations Pressure Air Temp Water Temp Dewpoint Dewpoint Depression Visibility Wind Speed Wind Dir Waves Ship Positions

Crown Princess

Last reported at 2016-Jul-31 08:33 UTC. Time now 2016-Jul-31 09:31 UTC.
Position N 48°58' W 126°13'.

Type: Ship. MMSI: 310500000.

Date/timePositionNaut miles runAvg speedWind from/ knotsBaromVisibWave heightAir tempDewpointWater temp
2016-Jul-31 08:33N 48°58' W 126°13'2221.8
2016-Jul-31 07:33N 48°45' W 125°46'2222.3
2016-Jul-31 06:33N 48°34' W 125°17'5222.3
2016-Jul-31 04:13N 48°19' W 124°02'1522.1
2016-Jul-31 03:33N 48°16' W 123°40'1615.8
2016-Jul-31 02:33N 48°09' W 123°19'1918.6
2016-Jul-31 01:33N 48°12' W 122°51'2121.1
2016-Jul-31 00:33N 47°56' W 122°31'19 9.5
2016-Jul-30 22:32N 47°38' W 122°23'0 0.0
2016-Jul-30 21:32N 47°38' W 122°23'0 0.0
2016-Jul-30 20:31N 47°38' W 122°23'0 0.0
2016-Jul-30 19:33N 47°38' W 122°23'0 0.0
2016-Jul-30 18:33N 47°38' W 122°23'0 0.0
2016-Jul-30 17:33N 47°38' W 122°23'0 0.0
2016-Jul-30 16:33N 47°38' W 122°23'0 0.0
2016-Jul-30 15:33N 47°38' W 122°23'0 0.0
2016-Jul-30 14:31N 47°38' W 122°23'0 0.0
2016-Jul-30 13:32N 47°38' W 122°23'2 2.5
2016-Jul-30 12:33N 47°38' W 122°26'1212.4
2016-Jul-30 11:33N 47°50' W 122°28'1313.3
2016-Jul-30 10:33N 48°02' W 122°38'1414.2
2016-Jul-30 09:33N 48°11' W 122°54'1716.2
2016-Jul-30 08:30N 48°10' W 123°20'1011.0
2016-Jul-30 07:33N 48°20' W 123°27'6 1.0
2016-Jul-30 02:04N 48°25' W 123°24'0 0.0
2016-Jul-30 01:22N 48°25' W 123°24'6 7.5
2016-Jul-30 00:33N 48°19' W 123°25'1616.3
2016-Jul-29 23:33N 48°14' W 123°48'1818.2
2016-Jul-29 22:33N 48°19' W 124°14'1918.6
2016-Jul-29 21:33N 48°27' W 124°39'1918.6
2016-Jul-29 20:33N 48°28' W 125°07'2020.4
2016-Jul-29 19:33N 48°38' W 125°35'2222.0
2016-Jul-29 18:33N 48°50' W 126°03'2121.1
2016-Jul-29 17:34N 49°02' W 126°28'2221.6
2016-Jul-29 16:34N 49°16' W 126°55'2322.6
2016-Jul-29 15:33N 49°30' W 127°21'60615.1
2016-Jul-27 23:33N 58°18' W 135°46'1211.8
2016-Jul-27 22:33N 58°27' W 136°00'1313.4
2016-Jul-27 21:33N 58°40' W 136°05'4 0.6
2016-Jul-27 14:33N 58°36' W 136°04'1312.7
2016-Jul-27 13:33N 58°24' W 135°58'1010.2
2016-Jul-27 12:33N 58°18' W 135°42'1212.3
2016-Jul-27 11:33N 58°13' W 135°20'  
2016-Jul-24 10:33N 49°18' W 126°56'2222.3
2016-Jul-24 09:33N 49°05' W 126°29'2121.4
2016-Jul-24 08:33N 48°52' W 126°03'2121.0
2016-Jul-24 07:34N 48°41' W 125°35'2322.9
2016-Jul-24 06:34N 48°31' W 125°04'2423.6
2016-Jul-24 05:34N 48°27' W 124°29'2322.7
2016-Jul-24 04:33N 48°18' W 123°57'2121.4
2016-Jul-24 03:34N 48°13' W 123°26'1413.8
2016-Jul-24 02:33N 48°13' W 123°06'1817.8
2016-Jul-24 01:33N 48°07' W 122°40'1817.9
2016-Jul-24 00:33N 47°52' W 122°28'1514.7
2016-Jul-23 23:33N 47°37' W 122°24'1 0.7
2016-Jul-23 22:32N 47°38' W 122°23'0 0.0
2016-Jul-23 21:32N 47°38' W 122°23'0 0.0
2016-Jul-23 20:32N 47°38' W 122°23'0 0.0
2016-Jul-23 19:31N 47°38' W 122°23'0 0.0
2016-Jul-23 18:34N 47°38' W 122°23'0 0.0
2016-Jul-23 17:33N 47°38' W 122°23'0 0.0
2016-Jul-23 16:33N 47°38' W 122°23'0 0.0
2016-Jul-23 15:33N 47°38' W 122°23'0 0.0
2016-Jul-23 14:32N 47°38' W 122°23'0 0.0
2016-Jul-23 13:33N 47°38' W 122°23'4 3.6
2016-Jul-23 12:34N 47°39' W 122°28'1312.8
2016-Jul-23 11:34N 47°52' W 122°29'1413.7
2016-Jul-23 10:33N 48°03' W 122°39'1615.8
2016-Jul-23 09:33N 48°12' W 122°60'1515.3
2016-Jul-23 08:33N 48°10' W 123°22'1312.6
2016-Jul-23 07:33N 48°22' W 123°25'3 0.5
2016-Jul-23 01:33N 48°25' W 123°24'5 4.9
2016-Jul-23 00:33N 48°20' W 123°24'1817.6
2016-Jul-22 23:33N 48°14' W 123°49'2222.3
2016-Jul-22 22:33N 48°21' W 124°20'2020.2
2016-Jul-22 21:33N 48°29' W 124°49'1919.1
2016-Jul-22 20:33N 48°31' W 125°17'2120.6
2016-Jul-22 19:33N 48°41' W 125°45'2222.3
2016-Jul-22 18:33N 48°54' W 126°12'2322.5
2016-Jul-22 17:33N 49°08' W 126°39'2323.2
2016-Jul-22 16:33N 49°22' W 127°07'18922.1
2016-Jul-22 08:00N 51°54' W 130°06'   240 / 161019.310.8 1.515.010.315.0

Dump ship's entire track history